createdAt,value
2023-02-02T00:01:59.606Z,80.53
2023-02-02T00:04:34.414Z,80.58
2023-02-02T00:07:06.263Z,80.81
2023-02-02T00:09:35.475Z,80.38
2023-02-02T00:12:04.498Z,80.89
2023-02-02T00:14:34.108Z,81.37
2023-02-02T00:17:03.044Z,81.18
2023-02-02T00:19:33.275Z,81.09
2023-02-02T00:22:02.847Z,81.05
2023-02-02T00:24:32.021Z,80.66
2023-02-02T00:27:01.937Z,79.56
2023-02-02T00:29:32.866Z,81.20
2023-02-02T00:32:03.863Z,80.98
2023-02-02T00:34:34.538Z,80.74
2023-02-02T00:37:03.589Z,80.91
2023-02-02T00:39:32.424Z,80.58
2023-02-02T00:42:01.936Z,81.47
2023-02-02T00:44:48.954Z,80.96
2023-02-02T00:47:18.924Z,80.81
2023-02-02T00:49:47.941Z,80.38
2023-02-02T00:52:17.179Z,81.33
2023-02-02T00:54:46.796Z,80.00
2023-02-02T00:57:16.891Z,80.21
2023-02-02T00:59:45.962Z,79.26
2023-02-02T01:02:17.407Z,78.06
2023-02-02T01:04:48.008Z,76.58
2023-02-02T01:07:18.370Z,75.97
2023-02-02T01:09:48.679Z,75.00
2023-02-02T01:12:19.733Z,74.56
2023-02-02T01:14:49.747Z,74.14
2023-02-02T01:17:19.969Z,73.78
2023-02-02T01:19:49.817Z,74.07
2023-02-02T01:22:19.693Z,74.60
2023-02-02T01:24:50.402Z,75.25
2023-02-02T01:27:20.608Z,75.68
2023-02-02T01:29:50.096Z,76.41
2023-02-02T01:32:19.098Z,76.57
2023-02-02T01:34:48.848Z,76.33
2023-02-02T01:37:18.206Z,77.32
2023-02-02T01:39:47.316Z,77.26
2023-02-02T01:42:23.684Z,77.07
2023-02-02T01:45:23.299Z,76.86
2023-02-02T01:47:58.096Z,77.61
2023-02-02T01:50:34.970Z,79.06
2023-02-02T01:53:07.709Z,78.97
2023-02-02T01:55:40.012Z,78.66
2023-02-02T01:58:19.513Z,78.70
2023-02-02T02:00:49.702Z,79.75
2023-02-02T02:03:27.421Z,79.46
2023-02-02T02:06:04.665Z,78.78
2023-02-02T02:08:54.752Z,79.79
2023-02-02T02:11:25.382Z,79.56
2023-02-02T02:14:15.891Z,79.09
2023-02-02T02:17:05.430Z,79.05
2023-02-02T02:20:23.213Z,79.37
2023-02-02T02:23:22.745Z,79.61
2023-02-02T02:26:31.709Z,79.04
2023-02-02T02:29:46.413Z,78.79
2023-02-02T02:32:43.962Z,78.72
2023-02-02T02:35:22.641Z,77.76
2023-02-02T02:37:59.501Z,78.26
2023-02-02T02:40:44.219Z,77.65
2023-02-02T02:43:25.452Z,77.72
2023-02-02T02:45:57.219Z,77.37
2023-02-02T02:48:27.671Z,77.19
2023-02-02T02:51:29.937Z,76.73
2023-02-02T02:53:59.301Z,74.54
2023-02-02T02:56:33.521Z,74.00
2023-02-02T02:59:28.323Z,73.71
2023-02-02T03:02:06.616Z,71.79
2023-02-02T03:04:50.250Z,71.78
2023-02-02T03:07:30.682Z,70.42
2023-02-02T03:10:02.482Z,68.40
2023-02-02T03:12:31.971Z,67.30
2023-02-02T03:15:05.740Z,65.44
2023-02-02T03:17:35.476Z,64.62
2023-02-02T03:20:05.796Z,65.32
2023-02-02T03:22:36.479Z,64.67
2023-02-02T03:25:06.560Z,65.15
2023-02-02T03:27:37.779Z,64.60
2023-02-02T03:30:10.021Z,63.00
2023-02-02T03:32:40.330Z,61.92
2023-02-02T03:35:10.739Z,61.54
2023-02-02T03:37:40.675Z,61.36
2023-02-02T03:40:10.682Z,61.55
2023-02-02T03:42:40.115Z,61.67
2023-02-02T03:45:09.714Z,62.17
2023-02-02T03:47:38.949Z,61.66
2023-02-02T03:50:10.021Z,62.87
2023-02-02T03:52:40.572Z,63.02
2023-02-02T03:55:10.365Z,63.48
2023-02-02T03:57:39.715Z,63.22
2023-02-02T04:00:16.005Z,63.10
2023-02-02T04:02:45.728Z,62.80
2023-02-02T04:05:14.937Z,61.68
2023-02-02T04:07:44.804Z,60.63
2023-02-02T04:10:14.090Z,60.76
2023-02-02T04:12:43.882Z,58.64
2023-02-02T04:15:14.020Z,59.29
2023-02-02T04:17:43.925Z,59.16
2023-02-02T04:20:13.557Z,58.61
2023-02-02T04:22:43.091Z,57.01
2023-02-02T04:25:12.877Z,55.29
2023-02-02T04:27:42.480Z,56.33
2023-02-02T04:30:12.800Z,55.78
2023-02-02T04:32:42.393Z,56.54
2023-02-02T04:35:11.421Z,52.88
2023-02-02T04:37:40.746Z,53.11
2023-02-02T04:40:10.501Z,52.95
2023-02-02T04:42:40.153Z,52.35
2023-02-02T04:45:10.048Z,53.21
2023-02-02T04:47:39.782Z,53.83
2023-02-02T04:50:09.388Z,54.19
2023-02-02T04:52:39.084Z,53.98
2023-02-02T04:55:08.777Z,54.64
2023-02-02T04:57:38.082Z,55.18
2023-02-02T05:00:08.314Z,54.84
2023-02-02T05:02:37.518Z,53.70
2023-02-02T05:05:08.925Z,53.76
2023-02-02T05:07:43.360Z,54.24
2023-02-02T05:10:14.226Z,53.27
2023-02-02T05:12:43.510Z,54.42
2023-02-02T05:15:12.939Z,54.02
2023-02-02T05:17:42.219Z,52.77
2023-02-02T05:20:12.092Z,53.39
2023-02-02T05:22:41.133Z,52.00
2023-02-02T05:25:11.082Z,52.88
2023-02-02T05:27:40.353Z,51.50
2023-02-02T05:30:10.725Z,50.85
2023-02-02T05:32:40.127Z,50.56
2023-02-02T05:35:12.610Z,49.03
2023-02-02T05:37:50.673Z,47.80
2023-02-02T05:40:29.726Z,47.95
2023-02-02T05:43:11.334Z,47.33
2023-02-02T05:45:54.616Z,46.23
2023-02-02T05:48:32.579Z,46.55
2023-02-02T05:55:33.816Z,45.02
2023-02-02T05:58:51.206Z,45.46
2023-02-02T06:05:01.651Z,43.60
2023-02-02T06:07:50.466Z,45.49
2023-02-02T06:13:45.848Z,45.06
2023-02-02T06:16:21.021Z,44.87
2023-02-02T06:18:50.156Z,44.44
2023-02-02T08:58:11.643Z,42.81
2023-02-02T09:00:41.323Z,43.59
2023-02-02T09:03:10.177Z,43.38
2023-02-02T09:05:39.512Z,43.62
2023-02-02T09:08:08.332Z,41.74
2023-02-02T09:13:30.282Z,42.02
2023-02-02T09:16:04.034Z,41.71
2023-02-02T09:18:35.007Z,40.05
2023-02-02T09:21:07.394Z,39.54
2023-02-02T09:23:38.994Z,38.00
2023-02-02T09:26:28.321Z,36.54
2023-02-02T09:28:59.636Z,36.95
2023-02-02T09:31:29.220Z,36.28
2023-02-02T09:34:05.505Z,36.19
2023-02-02T09:36:35.466Z,37.18
2023-02-02T09:39:05.681Z,36.73
2023-02-02T09:44:57.858Z,36.66
2023-02-02T09:47:56.757Z,37.01
2023-02-02T09:50:47.344Z,37.79
2023-02-02T09:53:19.778Z,39.08
2023-02-02T09:56:25.517Z,39.73
2023-02-02T09:59:06.949Z,39.33
2023-02-02T10:01:49.280Z,38.27
2023-02-02T10:04:34.630Z,37.28
2023-02-02T10:07:20.705Z,37.32
2023-02-02T10:10:07.039Z,36.51
2023-02-02T10:12:41.936Z,37.20
2023-02-02T10:15:55.552Z,37.10
2023-02-02T10:18:59.055Z,37.81
2023-02-02T10:21:52.553Z,38.07
2023-02-02T10:24:30.938Z,39.26
2023-02-02T10:27:15.183Z,39.02
2023-02-02T10:29:55.199Z,39.35
2023-02-02T10:32:42.083Z,39.54
2023-02-02T10:35:46.748Z,39.83
2023-02-02T10:38:44.785Z,39.27
2023-02-02T10:41:51.457Z,40.03
2023-02-02T10:44:46.792Z,40.34
2023-02-02T10:47:25.293Z,40.63
2023-02-02T10:51:00.176Z,40.77
2023-02-02T10:53:36.302Z,41.07
2023-02-02T10:56:59.258Z,41.55
2023-02-02T10:59:40.070Z,41.63
2023-02-02T11:02:21.129Z,41.91
2023-02-02T11:05:09.709Z,41.96
2023-02-02T11:07:39.319Z,41.94
2023-02-02T11:10:09.265Z,41.27
2023-02-02T11:12:54.102Z,40.65
2023-02-02T11:15:33.062Z,40.93
2023-02-02T11:18:27.231Z,40.61
2023-02-02T11:20:57.922Z,41.08
2023-02-02T11:23:29.681Z,40.56
2023-02-02T11:26:06.467Z,41.08
2023-02-02T11:28:38.737Z,41.20
2023-02-02T11:31:08.588Z,41.65
2023-02-02T11:33:38.520Z,41.91
2023-02-02T11:36:21.482Z,42.05
2023-02-02T11:39:29.695Z,40.84
2023-02-02T11:42:26.737Z,41.06
2023-02-02T11:45:08.375Z,41.61
2023-02-02T11:48:28.375Z,41.82
2023-02-02T11:51:02.696Z,42.38
2023-02-02T11:53:40.584Z,42.67
2023-02-02T11:56:26.032Z,42.95
2023-02-02T11:58:57.655Z,43.53
2023-02-02T12:01:28.199Z,43.56
2023-02-02T12:04:14.660Z,43.93
2023-02-02T12:06:44.062Z,44.17
2023-02-02T12:09:25.352Z,44.35
2023-02-02T12:12:09.002Z,45.23
2023-02-02T12:14:44.424Z,45.63
2023-02-02T12:17:49.504Z,46.48
2023-02-02T12:20:31.055Z,46.53
2023-02-02T12:23:02.866Z,47.25
2023-02-02T12:25:44.378Z,47.87
2023-02-02T12:28:34.233Z,48.61
2023-02-02T12:31:23.890Z,48.62
2023-02-02T12:33:59.148Z,49.36
2023-02-02T12:36:51.889Z,49.45
2023-02-02T12:39:35.214Z,49.83
2023-02-02T12:42:41.108Z,50.45
2023-02-02T12:45:16.549Z,50.91
2023-02-02T12:48:19.989Z,51.07
2023-02-02T12:50:56.099Z,51.81
2023-02-02T12:53:41.636Z,52.01
2023-02-02T12:56:23.713Z,52.40
2023-02-02T12:58:57.947Z,52.59
2023-02-02T13:01:49.147Z,52.82
2023-02-02T13:04:54.273Z,53.12
2023-02-02T13:08:02.456Z,53.17
2023-02-02T13:10:43.419Z,54.08
2023-02-02T13:13:12.566Z,54.80
2023-02-02T13:15:45.760Z,55.23
2023-02-02T13:18:27.420Z,55.97
2023-02-02T13:21:02.974Z,56.81
2023-02-02T13:23:52.409Z,56.52
2023-02-02T13:26:28.341Z,57.02
2023-02-02T13:29:21.060Z,57.30
2023-02-02T13:31:53.581Z,57.61
2023-02-02T13:35:07.319Z,57.62
2023-02-02T13:37:38.243Z,57.62
2023-02-02T13:40:28.571Z,58.45
2023-02-02T13:43:19.331Z,59.25
2023-02-02T13:46:21.478Z,59.43
2023-02-02T13:49:14.185Z,60.15
2023-02-02T13:51:55.828Z,60.71
2023-02-02T13:54:28.446Z,61.07
2023-02-02T13:57:09.508Z,60.50
2023-02-02T14:00:06.309Z,61.10
2023-02-02T14:02:58.565Z,61.76
2023-02-02T14:05:29.559Z,62.10
2023-02-02T14:08:04.154Z,62.33
2023-02-02T14:10:59.216Z,62.73
2023-02-02T14:13:57.476Z,63.45
2023-02-02T14:16:46.726Z,63.32
2023-02-02T14:19:36.275Z,64.26
2023-02-02T14:22:11.284Z,64.71
2023-02-02T14:24:52.589Z,65.23
2023-02-02T14:27:31.128Z,64.90
2023-02-02T14:30:01.917Z,65.64
2023-02-02T14:32:42.134Z,65.69
2023-02-02T14:35:19.472Z,65.96
2023-02-02T14:38:23.910Z,65.80
2023-02-02T14:41:41.800Z,66.01
2023-02-02T14:44:11.129Z,66.84
2023-02-02T14:46:41.575Z,67.06
2023-02-02T14:49:19.985Z,67.22
2023-02-02T14:51:54.486Z,67.47
2023-02-02T14:54:30.100Z,67.62
2023-02-02T14:57:06.625Z,67.73
2023-02-02T14:59:41.485Z,67.95
2023-02-02T15:02:21.163Z,68.32
2023-02-02T15:04:51.203Z,68.06
2023-02-02T15:07:55.393Z,67.97
2023-02-02T15:10:54.842Z,67.58
2023-02-02T15:13:28.219Z,68.00
2023-02-02T15:16:08.473Z,68.55
2023-02-02T15:18:45.600Z,68.72
2023-02-02T15:21:22.853Z,68.94
2023-02-02T15:23:51.969Z,69.14
2023-02-02T15:26:29.534Z,69.36
2023-02-02T15:29:15.738Z,69.26
2023-02-02T15:31:48.017Z,69.64
2023-02-02T15:34:27.589Z,69.62
2023-02-02T15:37:04.112Z,69.49
2023-02-02T15:39:43.165Z,69.51
2023-02-02T15:42:42.602Z,69.34
2023-02-02T15:45:44.229Z,69.24
2023-02-02T15:48:23.599Z,69.91
2023-02-02T15:50:58.000Z,70.54
2023-02-02T15:53:33.411Z,70.93
2023-02-02T15:56:22.630Z,70.82
2023-02-02T15:58:54.779Z,71.47
2023-02-02T16:01:25.398Z,71.70
2023-02-02T16:04:18.804Z,71.71
2023-02-02T16:06:49.258Z,71.69
2023-02-02T16:09:27.800Z,72.11
2023-02-02T16:11:56.934Z,72.00
2023-02-02T16:14:30.584Z,72.38
2023-02-02T16:17:21.597Z,72.43
2023-02-02T16:20:12.382Z,72.76
2023-02-02T16:22:45.256Z,72.80
2023-02-02T16:25:20.831Z,72.61
2023-02-02T16:27:50.505Z,72.58
2023-02-02T16:30:28.727Z,72.32
2023-02-02T16:32:59.613Z,72.95
2023-02-02T16:35:37.916Z,72.78
2023-02-02T16:38:37.687Z,72.16
2023-02-02T16:41:11.884Z,72.35
2023-02-02T16:43:42.923Z,72.38
2023-02-02T16:46:15.717Z,72.27
2023-02-02T16:48:58.069Z,72.17
2023-02-02T16:51:29.035Z,72.69
2023-02-02T16:54:20.219Z,72.35
2023-02-02T16:56:52.985Z,72.65
2023-02-02T16:59:29.007Z,73.10
2023-02-02T17:02:05.008Z,73.45
2023-02-02T17:04:35.701Z,73.16
2023-02-02T17:07:12.643Z,73.61
2023-02-02T17:09:47.354Z,73.62
2023-02-02T17:12:32.760Z,73.47
2023-02-02T17:15:23.910Z,73.27
2023-02-02T17:17:53.696Z,73.70
2023-02-02T17:20:22.955Z,74.40
2023-02-02T17:23:02.650Z,73.68
2023-02-02T17:25:36.903Z,73.62
2023-02-02T17:28:11.530Z,73.16
2023-02-02T17:30:49.462Z,73.10
2023-02-02T17:33:20.141Z,72.69
2023-02-02T17:35:55.405Z,72.80
2023-02-02T17:38:26.636Z,73.91
2023-02-02T17:41:01.679Z,73.41
2023-02-02T17:43:32.119Z,73.57
2023-02-02T17:46:01.221Z,73.54
2023-02-02T17:48:30.156Z,73.54
2023-02-02T17:50:58.951Z,73.36
2023-02-02T17:53:33.519Z,72.64
2023-02-02T17:56:02.814Z,72.46
2023-02-02T17:58:31.545Z,72.27
2023-02-02T18:01:01.033Z,73.42
2023-02-02T18:03:34.493Z,73.24
2023-02-02T18:06:04.643Z,72.85
2023-02-02T18:08:34.492Z,73.20
2023-02-02T18:11:04.806Z,72.89
2023-02-02T18:13:33.729Z,73.84
2023-02-02T18:16:06.785Z,74.13
2023-02-02T18:18:36.372Z,74.46
2023-02-02T18:21:10.724Z,74.41
2023-02-02T18:23:41.888Z,74.34
2023-02-02T18:26:16.066Z,74.61
2023-02-02T18:28:45.702Z,75.02
2023-02-02T18:31:19.592Z,75.11
2023-02-02T18:33:50.114Z,74.73
2023-02-02T18:36:21.834Z,75.11
2023-02-02T18:38:52.209Z,74.97
2023-02-02T18:41:22.542Z,73.80
2023-02-02T18:43:54.752Z,74.67
2023-02-02T18:46:24.314Z,74.80
2023-02-02T18:48:53.134Z,74.70
2023-02-02T18:51:22.887Z,75.13
2023-02-02T18:53:51.719Z,75.49
2023-02-02T18:56:20.611Z,75.43
2023-02-02T18:58:52.580Z,76.13
2023-02-02T19:01:22.643Z,76.86
2023-02-02T19:03:53.383Z,76.50
2023-02-02T19:06:42.969Z,76.83
2023-02-02T19:09:12.290Z,76.30
2023-02-02T19:11:49.545Z,76.55
2023-02-02T19:14:20.562Z,76.86
2023-02-02T19:16:50.188Z,77.34
2023-02-02T19:19:26.626Z,77.17
2023-02-02T19:22:00.657Z,77.22
2023-02-02T19:24:40.279Z,77.45
2023-02-02T19:27:24.726Z,77.70
2023-02-02T19:30:00.884Z,77.82
2023-02-02T19:32:34.519Z,77.66
2023-02-02T19:35:03.716Z,77.04
2023-02-02T19:37:34.412Z,77.10
2023-02-02T19:40:11.827Z,76.90
2023-02-02T19:43:09.565Z,77.25
2023-02-02T19:45:40.624Z,77.57
2023-02-02T19:48:28.271Z,78.04
2023-02-02T19:50:57.425Z,78.24
2023-02-02T19:53:33.397Z,79.06
2023-02-02T19:56:03.895Z,78.95
2023-02-02T19:58:40.183Z,78.96
2023-02-02T20:01:20.636Z,78.75
2023-02-02T20:03:51.845Z,78.81
2023-02-02T20:06:26.371Z,79.15
2023-02-02T20:08:55.317Z,79.23
2023-02-02T20:11:46.732Z,79.50
2023-02-02T20:14:27.464Z,79.91
2023-02-02T20:17:15.077Z,80.46
2023-02-02T20:19:47.813Z,80.53
2023-02-02T20:22:29.389Z,79.80
2023-02-02T20:25:02.156Z,79.88
2023-02-02T20:27:34.673Z,79.79
2023-02-02T20:30:19.008Z,79.77
2023-02-02T20:32:52.431Z,80.49
2023-02-02T20:35:35.437Z,80.27
2023-02-02T20:38:21.026Z,80.64
2023-02-02T20:40:50.070Z,80.83
2023-02-02T20:43:18.903Z,80.75
2023-02-02T20:45:48.384Z,81.25
2023-02-02T20:48:17.175Z,81.14
2023-02-02T20:50:47.604Z,81.62
2023-02-02T20:53:17.575Z,82.13
2023-02-02T20:55:46.458Z,82.08
2023-02-02T20:58:16.000Z,82.37
2023-02-02T21:00:44.913Z,82.57
2023-02-02T21:03:14.222Z,83.03
2023-02-02T21:05:43.122Z,82.83
2023-02-02T21:08:12.450Z,82.85
2023-02-02T21:10:41.180Z,83.08
2023-02-02T21:13:10.265Z,83.40
2023-02-02T21:15:39.039Z,83.19
2023-02-02T21:18:07.983Z,83.65
2023-02-02T21:20:36.762Z,83.92
2023-02-02T21:23:05.727Z,83.85
2023-02-02T21:25:34.416Z,84.12
2023-02-02T21:28:03.249Z,84.08
2023-02-02T21:30:32.380Z,83.83
2023-02-02T21:33:01.531Z,84.56
2023-02-02T21:35:30.309Z,84.37
2023-02-02T21:38:08.111Z,84.49
2023-02-02T21:40:37.196Z,84.49
2023-02-02T21:43:17.544Z,84.97
2023-02-02T21:45:52.202Z,84.54
2023-02-02T21:48:21.184Z,84.90
2023-02-02T21:50:50.100Z,84.85
2023-02-02T21:53:26.066Z,85.44
2023-02-02T21:55:56.614Z,85.14
2023-02-02T21:58:39.252Z,85.67
2023-02-02T22:01:41.108Z,85.58
2023-02-02T22:04:38.209Z,85.80
2023-02-02T22:07:17.549Z,86.22
2023-02-02T22:09:47.110Z,85.65
2023-02-02T22:12:23.233Z,85.98
2023-02-02T22:15:01.588Z,85.49
2023-02-02T22:17:41.489Z,85.65
2023-02-02T22:20:19.048Z,85.55
2023-02-02T22:22:52.409Z,85.59
2023-02-02T22:25:34.625Z,85.93
2023-02-02T22:28:15.572Z,85.79
2023-02-02T22:30:44.847Z,85.70
2023-02-02T22:33:15.096Z,85.90
2023-02-02T22:35:45.071Z,86.32
2023-02-02T22:38:25.203Z,86.16
2023-02-02T22:40:55.292Z,86.33
2023-02-02T22:43:24.294Z,85.26
2023-02-02T22:45:53.296Z,86.08
2023-02-02T22:48:22.246Z,85.52
2023-02-02T22:50:51.342Z,85.31
2023-02-02T22:53:20.058Z,85.46
2023-02-02T22:55:49.292Z,85.64
2023-02-02T22:58:18.067Z,85.41
2023-02-02T23:00:47.177Z,85.99
2023-02-02T23:03:16.021Z,85.96
2023-02-02T23:05:44.955Z,86.41
2023-02-02T23:08:13.788Z,86.18
2023-02-02T23:10:42.910Z,86.31
2023-02-02T23:13:11.667Z,86.14
2023-02-02T23:15:40.677Z,86.63
2023-02-02T23:18:09.456Z,87.33
2023-02-02T23:20:38.522Z,86.78
2023-02-02T23:23:07.259Z,87.15
2023-02-02T23:25:36.368Z,86.62
2023-02-02T23:28:05.194Z,86.34
2023-02-02T23:30:34.190Z,86.36
2023-02-02T23:33:03.059Z,86.20
2023-02-02T23:35:31.991Z,86.68
2023-02-02T23:38:00.788Z,86.91
2023-02-02T23:40:29.789Z,86.89
2023-02-02T23:42:58.513Z,86.76
2023-02-02T23:45:27.494Z,86.84
2023-02-02T23:47:56.331Z,86.93
2023-02-02T23:50:25.604Z,86.52
2023-02-02T23:52:54.682Z,86.33
2023-02-02T23:55:23.995Z,86.44
2023-02-02T23:57:52.782Z,87.01
